createdAt,value
2022-12-05T00:00:23.991Z,3.98
2022-12-05T00:03:08.065Z,3.82
2022-12-05T00:05:52.051Z,4.01
2022-12-05T00:08:35.943Z,4.03
2022-12-05T00:11:21.281Z,4.05
2022-12-05T00:14:06.691Z,4.02
2022-12-05T00:16:51.872Z,4.13
2022-12-05T00:19:36.122Z,4.07
2022-12-05T00:22:20.337Z,4.02
2022-12-05T00:25:04.737Z,3.79
2022-12-05T00:27:48.708Z,4.05
2022-12-05T00:30:32.971Z,4.10
2022-12-05T00:33:18.533Z,3.58
2022-12-05T00:36:04.354Z,3.91
2022-12-05T00:38:48.499Z,4.02
2022-12-05T00:41:32.653Z,3.45
2022-12-05T00:44:16.633Z,4.06
2022-12-05T00:47:00.601Z,3.77
2022-12-05T00:49:45.992Z,4.06
2022-12-05T00:52:29.994Z,3.89
2022-12-05T00:55:13.955Z,4.10
2022-12-05T00:57:58.009Z,4.07
2022-12-05T01:00:42.125Z,3.75
2022-12-05T01:03:26.328Z,3.55
2022-12-05T01:06:12.197Z,4.05
2022-12-05T01:08:57.299Z,4.01
2022-12-05T01:11:41.827Z,3.97
2022-12-05T01:14:27.304Z,3.81
2022-12-05T01:17:11.705Z,3.98
2022-12-05T01:19:56.240Z,3.65
2022-12-05T01:22:41.714Z,3.91
2022-12-05T01:25:47.891Z,3.99
2022-12-05T01:28:31.914Z,3.86
2022-12-05T01:31:22.497Z,3.92
2022-12-05T01:34:09.286Z,3.98
2022-12-05T01:36:53.308Z,4.06
2022-12-05T01:39:38.710Z,3.87
2022-12-05T01:42:26.203Z,3.77
2022-12-05T01:45:17.042Z,3.72
2022-12-05T01:48:03.798Z,4.07
2022-12-05T01:50:49.135Z,3.82
2022-12-05T01:53:33.098Z,3.89
2022-12-05T01:56:20.066Z,3.40
2022-12-05T01:59:07.470Z,3.79
2022-12-05T02:01:51.590Z,3.68
2022-12-05T02:04:40.050Z,3.77
2022-12-05T02:07:24.437Z,3.98
2022-12-05T02:10:09.821Z,3.97
2022-12-05T02:12:55.828Z,3.65
2022-12-05T02:15:44.974Z,3.85
2022-12-05T02:18:42.665Z,3.68
2022-12-05T02:21:51.439Z,3.90
2022-12-05T02:24:53.873Z,3.63
2022-12-05T02:28:12.443Z,4.06
2022-12-05T02:31:01.369Z,3.98
2022-12-05T02:33:50.037Z,4.05
2022-12-05T02:36:48.397Z,3.95
2022-12-05T02:39:42.756Z,3.99
2022-12-05T02:42:34.623Z,3.71
2022-12-05T02:45:25.275Z,3.78
2022-12-05T02:48:13.177Z,3.82
2022-12-05T02:51:00.364Z,3.95
2022-12-05T02:53:45.838Z,4.18
2022-12-05T02:56:34.363Z,4.01
2022-12-05T02:59:23.074Z,3.79
2022-12-05T03:02:09.838Z,3.86
2022-12-05T03:04:59.193Z,3.89
2022-12-05T03:07:46.470Z,4.14
2022-12-05T03:10:32.645Z,4.08
2022-12-05T03:13:21.967Z,3.83
2022-12-05T03:16:10.172Z,4.11
2022-12-05T03:18:59.527Z,4.17
2022-12-05T03:21:51.998Z,4.09
2022-12-05T03:24:39.023Z,4.03
2022-12-05T03:27:28.898Z,3.77
2022-12-05T03:30:15.943Z,3.78
2022-12-05T03:33:07.116Z,4.07
2022-12-05T03:36:00.099Z,3.83
2022-12-05T03:38:50.546Z,4.17
2022-12-05T03:41:39.890Z,3.88
2022-12-05T03:44:29.581Z,3.96
2022-12-05T03:47:18.976Z,3.68
2022-12-05T03:50:08.921Z,3.95
2022-12-05T03:53:19.228Z,3.71
2022-12-05T03:56:07.698Z,3.84
2022-12-05T03:58:58.238Z,4.01
2022-12-05T04:01:44.647Z,4.05
2022-12-05T04:04:32.981Z,3.98
2022-12-05T04:07:19.895Z,4.02
2022-12-05T04:10:08.245Z,4.05
2022-12-05T04:12:56.256Z,4.01
2022-12-05T04:15:54.034Z,3.98
2022-12-05T04:18:40.317Z,4.15
2022-12-05T04:21:40.699Z,4.05
2022-12-05T04:24:45.534Z,4.06
2022-12-05T04:27:38.049Z,4.17
2022-12-05T04:30:25.702Z,4.08
2022-12-05T04:33:15.516Z,4.18
2022-12-05T04:36:04.276Z,4.34
2022-12-05T04:38:52.729Z,4.25
2022-12-05T04:41:41.579Z,4.51
2022-12-05T04:44:28.518Z,4.60
2022-12-05T04:47:15.920Z,4.29
2022-12-05T04:50:01.626Z,4.15
2022-12-05T04:52:51.732Z,3.89
2022-12-05T04:55:38.584Z,3.98
2022-12-05T04:58:24.576Z,3.96
2022-12-05T05:01:15.762Z,3.86
2022-12-05T05:04:09.508Z,3.87
2022-12-05T05:06:53.516Z,4.02
2022-12-05T05:09:38.215Z,3.81
2022-12-05T05:12:22.112Z,4.07
2022-12-05T05:15:06.930Z,4.14
2022-12-05T05:17:50.794Z,4.07
2022-12-05T05:20:35.920Z,4.19
2022-12-05T05:23:19.686Z,4.19
2022-12-05T05:26:03.521Z,4.20
2022-12-05T05:28:47.783Z,3.99
2022-12-05T05:31:31.669Z,4.00
2022-12-05T05:34:16.664Z,3.99
2022-12-05T05:37:01.837Z,3.93
2022-12-05T05:39:45.806Z,4.12
2022-12-05T05:42:29.600Z,4.05
2022-12-05T05:45:14.384Z,4.24
2022-12-05T05:47:58.282Z,4.14
2022-12-05T05:50:42.024Z,4.11
2022-12-05T05:53:29.512Z,4.20
2022-12-05T05:56:20.069Z,4.14
2022-12-05T05:59:05.200Z,4.02
2022-12-05T06:01:48.990Z,3.93
2022-12-05T06:04:32.829Z,4.22
2022-12-05T06:07:16.723Z,4.14
2022-12-05T06:10:02.134Z,4.26
2022-12-05T06:12:46.987Z,4.22
2022-12-05T06:15:30.811Z,4.17
2022-12-05T06:18:14.641Z,4.02
2022-12-05T06:20:59.400Z,4.32
2022-12-05T06:23:43.173Z,4.07
2022-12-05T06:26:28.448Z,4.19
2022-12-05T06:29:13.000Z,4.08
2022-12-05T06:31:56.894Z,3.94
2022-12-05T06:34:41.166Z,4.24
2022-12-05T06:37:25.210Z,4.11
2022-12-05T06:40:10.469Z,4.12
2022-12-05T06:42:55.994Z,4.47
2022-12-05T06:45:40.911Z,4.40
2022-12-05T06:48:25.043Z,4.56
2022-12-05T06:51:12.091Z,4.57
2022-12-05T06:53:57.534Z,4.60
2022-12-05T06:56:41.875Z,4.63
2022-12-05T06:59:27.455Z,4.69
2022-12-05T07:02:12.695Z,4.68
2022-12-05T07:04:56.633Z,4.43
2022-12-05T07:07:40.695Z,4.45
2022-12-05T07:10:24.688Z,4.68
2022-12-05T07:13:10.101Z,4.69
2022-12-05T07:15:59.278Z,4.41
2022-12-05T07:18:43.460Z,4.42
2022-12-05T07:21:27.401Z,4.79
2022-12-05T07:24:11.542Z,4.55
2022-12-05T07:26:55.637Z,4.80
2022-12-05T07:29:39.624Z,4.91
2022-12-05T07:32:24.738Z,5.17
2022-12-05T07:35:09.206Z,4.93
2022-12-05T07:37:52.897Z,5.09
2022-12-05T07:40:38.655Z,5.02
2022-12-05T07:43:22.437Z,4.89
2022-12-05T07:46:07.534Z,5.11
2022-12-05T07:48:53.509Z,4.97
2022-12-05T07:51:37.409Z,5.08
2022-12-05T07:54:21.268Z,5.25
2022-12-05T07:57:05.245Z,5.29
2022-12-05T07:59:49.006Z,5.19
2022-12-05T08:02:33.879Z,5.32
2022-12-05T08:05:20.753Z,5.39
2022-12-05T08:08:04.746Z,5.33
2022-12-05T08:10:48.500Z,5.19
2022-12-05T08:13:32.279Z,5.35
2022-12-05T08:16:18.278Z,5.40
2022-12-05T08:19:04.668Z,5.32
2022-12-05T08:21:49.758Z,5.46
2022-12-05T08:24:33.626Z,5.72
2022-12-05T08:27:17.467Z,5.67
2022-12-05T08:30:01.189Z,5.90
2022-12-05T08:32:48.458Z,5.84
2022-12-05T08:35:32.251Z,5.75
2022-12-05T08:38:17.284Z,5.63
2022-12-05T08:41:02.224Z,5.49
2022-12-05T08:43:46.052Z,5.86
2022-12-05T08:46:29.945Z,5.80
2022-12-05T08:49:14.194Z,5.92
2022-12-05T08:51:57.949Z,5.91
2022-12-05T08:54:43.102Z,5.75
2022-12-05T08:57:26.877Z,5.83
2022-12-05T09:00:11.520Z,5.96
2022-12-05T09:02:55.466Z,6.14
2022-12-05T09:05:39.247Z,6.13
2022-12-05T09:08:23.052Z,5.97
2022-12-05T09:11:09.817Z,6.35
2022-12-05T09:13:55.147Z,6.08
2022-12-05T09:16:39.929Z,6.10
2022-12-05T09:19:25.015Z,6.14
2022-12-05T09:22:08.809Z,6.47
2022-12-05T09:24:52.908Z,6.36
2022-12-05T09:27:38.128Z,6.50
2022-12-05T09:30:22.061Z,6.44
2022-12-05T09:33:05.870Z,6.50
2022-12-05T09:35:49.530Z,6.63
2022-12-05T09:38:33.548Z,6.84
2022-12-05T09:41:57.523Z,5.61
2022-12-05T09:44:50.908Z,6.83
2022-12-05T09:47:44.115Z,6.47
2022-12-05T09:50:30.187Z,6.87
2022-12-05T09:53:25.565Z,6.96
2022-12-05T09:56:19.787Z,6.92
2022-12-05T09:59:03.542Z,6.63
2022-12-05T10:01:57.161Z,6.90
2022-12-05T10:05:00.110Z,7.12
2022-12-05T10:07:55.164Z,7.08
2022-12-05T10:10:49.895Z,7.03
2022-12-05T10:13:46.743Z,7.04
2022-12-05T10:16:34.285Z,6.93
2022-12-05T10:19:25.661Z,6.70
2022-12-05T10:22:20.274Z,6.66
2022-12-05T10:25:07.056Z,6.80
2022-12-05T10:27:53.402Z,6.69
2022-12-05T10:30:38.478Z,7.12
2022-12-05T10:33:24.216Z,7.08
2022-12-05T10:36:13.240Z,6.80
2022-12-05T10:38:57.959Z,6.96
2022-12-05T10:41:41.744Z,6.93
2022-12-05T10:44:25.497Z,7.01
2022-12-05T10:47:10.176Z,6.71
2022-12-05T10:49:55.569Z,7.00
2022-12-05T10:52:40.692Z,6.89
2022-12-05T10:55:28.846Z,6.19
2022-12-05T10:58:17.826Z,6.90
2022-12-05T11:01:10.063Z,7.04
2022-12-05T11:03:58.256Z,7.09
2022-12-05T11:06:51.926Z,7.20
2022-12-05T11:09:39.355Z,6.96
2022-12-05T11:12:25.551Z,7.07
2022-12-05T11:15:25.010Z,7.26
2022-12-05T11:18:20.492Z,7.02
2022-12-05T11:21:12.476Z,6.87
2022-12-05T11:23:56.432Z,7.13
2022-12-05T11:26:42.942Z,6.81
2022-12-05T11:29:37.178Z,6.75
2022-12-05T11:32:22.891Z,6.84
2022-12-05T11:35:19.694Z,6.66
2022-12-05T11:38:05.300Z,6.75
2022-12-05T11:40:55.108Z,6.67
2022-12-05T11:43:54.281Z,7.05
2022-12-05T11:46:49.837Z,7.18
2022-12-05T11:49:46.285Z,6.96
2022-12-05T11:52:41.009Z,7.22
2022-12-05T11:55:31.964Z,7.24
2022-12-05T11:58:46.520Z,7.39
2022-12-05T12:01:42.888Z,7.52
2022-12-05T12:04:42.120Z,7.43
2022-12-05T12:07:40.730Z,7.63
2022-12-05T12:10:34.212Z,7.34
2022-12-05T12:13:31.881Z,7.54
2022-12-05T12:16:23.519Z,7.74
2022-12-05T12:19:22.440Z,7.23
2022-12-05T12:22:23.271Z,7.49
2022-12-05T12:25:28.593Z,7.26
2022-12-05T12:28:29.519Z,7.43
2022-12-05T12:31:48.786Z,7.76
2022-12-05T12:34:54.417Z,7.25
2022-12-05T12:37:47.844Z,7.53
2022-12-05T12:40:41.674Z,7.58
2022-12-05T12:43:53.721Z,7.48
2022-12-05T12:46:51.225Z,7.42
2022-12-05T12:49:53.918Z,7.10
2022-12-05T12:52:54.986Z,6.93
2022-12-05T12:55:45.820Z,6.76
2022-12-05T12:58:45.634Z,6.43
2022-12-05T13:01:38.857Z,7.01
2022-12-05T13:04:29.895Z,7.01
2022-12-05T13:07:19.222Z,6.53
2022-12-05T13:10:12.838Z,6.50
2022-12-05T13:12:59.709Z,6.93
2022-12-05T13:15:48.023Z,6.71
2022-12-05T13:18:32.145Z,6.72
2022-12-05T13:21:18.610Z,6.61
2022-12-05T13:24:03.891Z,6.47
2022-12-05T13:26:51.146Z,6.91
2022-12-05T13:29:37.988Z,6.65
2022-12-05T13:32:33.673Z,6.81
2022-12-05T13:35:40.079Z,7.02
2022-12-05T13:38:47.637Z,6.82
2022-12-05T13:41:59.722Z,6.49
2022-12-05T13:44:46.667Z,6.60
2022-12-05T13:47:34.963Z,6.35
2022-12-05T13:50:24.076Z,6.80
2022-12-05T13:53:25.376Z,7.04
2022-12-05T13:56:29.261Z,6.78
2022-12-05T13:59:13.194Z,7.01
2022-12-05T14:01:57.222Z,6.93
2022-12-05T14:04:53.396Z,7.16
2022-12-05T14:07:43.667Z,7.05
2022-12-05T14:11:13.026Z,7.19
2022-12-05T14:14:03.992Z,7.29
2022-12-05T14:16:53.165Z,7.09
2022-12-05T14:20:01.568Z,7.26
2022-12-05T14:23:14.041Z,7.01
2022-12-05T14:26:20.154Z,7.59
2022-12-05T14:29:20.431Z,7.62
2022-12-05T14:32:14.382Z,7.53
2022-12-05T14:35:03.473Z,7.56
2022-12-05T14:37:54.829Z,7.62
2022-12-05T14:40:41.341Z,8.00
2022-12-05T14:43:32.985Z,8.25
2022-12-05T14:46:23.350Z,7.95
2022-12-05T14:49:53.047Z,8.57
2022-12-05T14:52:38.838Z,8.52
2022-12-05T14:55:26.903Z,8.23
2022-12-05T14:58:19.684Z,7.60
2022-12-05T15:01:09.259Z,7.80
2022-12-05T15:04:09.518Z,7.32
2022-12-05T15:06:57.330Z,7.42
2022-12-05T15:10:04.087Z,7.44
2022-12-05T15:12:51.033Z,6.95
2022-12-05T15:15:39.022Z,7.37
2022-12-05T15:18:29.748Z,7.31
2022-12-05T15:21:23.268Z,7.06
2022-12-05T15:24:13.828Z,7.54
2022-12-05T15:27:00.041Z,7.58
2022-12-05T15:29:44.734Z,7.15
2022-12-05T15:32:29.587Z,7.06
2022-12-05T15:35:17.547Z,7.05
2022-12-05T15:38:09.456Z,6.92
2022-12-05T15:40:53.354Z,7.34
2022-12-05T15:43:37.814Z,7.33
2022-12-05T15:46:24.526Z,7.61
2022-12-05T15:49:18.480Z,7.13
2022-12-05T15:52:25.788Z,7.32
2022-12-05T15:55:15.261Z,7.46
2022-12-05T15:58:09.656Z,7.47
2022-12-05T16:01:02.607Z,6.70
2022-12-05T16:03:52.452Z,7.52
2022-12-05T16:06:40.503Z,7.20
2022-12-05T16:09:29.850Z,7.10
2022-12-05T16:12:28.369Z,7.18
2022-12-05T16:15:16.298Z,6.83
2022-12-05T16:18:02.133Z,7.08
2022-12-05T16:20:47.181Z,7.18
2022-12-05T16:23:33.278Z,7.32
2022-12-05T16:26:22.978Z,6.81
2022-12-05T16:29:07.014Z,7.22
2022-12-05T16:31:56.587Z,7.09
2022-12-05T16:34:40.437Z,7.45
2022-12-05T16:37:27.495Z,7.01
2022-12-05T16:40:22.445Z,6.96
2022-12-05T16:43:18.412Z,7.09
2022-12-05T16:46:43.101Z,6.82
2022-12-05T16:49:34.972Z,6.84
2022-12-05T16:52:18.843Z,6.83
2022-12-05T16:55:02.688Z,6.80
2022-12-05T16:57:47.392Z,6.71
2022-12-05T17:00:33.423Z,6.24
2022-12-05T17:03:33.867Z,6.58
2022-12-05T17:06:19.529Z,6.81
2022-12-05T17:09:03.388Z,6.63
2022-12-05T17:11:49.059Z,6.65
2022-12-05T17:14:32.963Z,6.59
2022-12-05T17:17:19.178Z,6.68
2022-12-05T17:20:03.208Z,6.27
2022-12-05T17:22:47.774Z,6.25
2022-12-05T17:25:36.454Z,6.76
2022-12-05T17:28:20.750Z,6.61
2022-12-05T17:31:04.550Z,6.74
2022-12-05T17:33:51.589Z,6.16
2022-12-05T17:36:35.334Z,6.74
2022-12-05T17:39:22.427Z,6.80
2022-12-05T17:42:10.367Z,6.66
2022-12-05T17:44:54.356Z,6.65
2022-12-05T17:47:38.290Z,6.33
2022-12-05T17:50:24.858Z,6.35
2022-12-05T17:53:14.561Z,6.61
2022-12-05T17:55:58.448Z,6.86
2022-12-05T17:58:43.346Z,6.55
2022-12-05T18:01:27.609Z,6.69
2022-12-05T18:04:11.657Z,6.84
2022-12-05T18:06:57.112Z,7.14
2022-12-05T18:09:40.886Z,7.24
2022-12-05T18:12:26.441Z,7.78
2022-12-05T18:15:11.061Z,7.34
2022-12-05T18:17:55.626Z,7.63
2022-12-05T18:20:39.457Z,7.85
2022-12-05T18:23:24.813Z,7.50
2022-12-05T18:26:10.527Z,7.85
2022-12-05T18:28:56.854Z,8.10
2022-12-05T18:31:42.845Z,7.92
2022-12-05T18:34:26.925Z,7.66
2022-12-05T18:37:11.578Z,7.69
2022-12-05T18:39:57.524Z,7.57
2022-12-05T18:42:41.353Z,7.42
2022-12-05T18:45:25.155Z,6.82
2022-12-05T18:48:23.769Z,6.77
2022-12-05T18:51:14.763Z,6.95
2022-12-05T18:53:59.097Z,7.46
2022-12-05T18:56:46.111Z,7.25
2022-12-05T18:59:30.862Z,7.83
2022-12-05T19:02:15.176Z,7.68
2022-12-05T19:04:59.201Z,7.72
2022-12-05T19:07:43.192Z,7.73
2022-12-05T19:10:27.105Z,7.96
2022-12-05T19:13:12.236Z,7.57
2022-12-05T19:16:02.458Z,7.86
2022-12-05T19:18:46.925Z,7.44
2022-12-05T19:21:32.555Z,7.38
2022-12-05T19:24:20.006Z,8.14
2022-12-05T19:27:04.062Z,7.63
2022-12-05T19:29:49.450Z,7.79
2022-12-05T19:32:36.923Z,7.90
2022-12-05T19:35:23.980Z,8.02
2022-12-05T19:38:07.888Z,7.76
2022-12-05T19:40:57.124Z,7.95
2022-12-05T19:43:43.152Z,8.07
2022-12-05T19:46:30.269Z,8.19
2022-12-05T19:49:15.911Z,8.04
2022-12-05T19:51:59.838Z,6.99
2022-12-05T19:54:43.690Z,8.22
2022-12-05T19:57:31.220Z,7.83
2022-12-05T20:00:19.063Z,7.83
2022-12-05T20:03:07.790Z,8.33
2022-12-05T20:05:59.425Z,8.33
2022-12-05T20:08:43.522Z,7.99
2022-12-05T20:11:29.292Z,8.40
2022-12-05T20:14:14.586Z,8.04
2022-12-05T20:16:58.517Z,8.39
2022-12-05T20:19:43.876Z,8.21
2022-12-05T20:22:31.030Z,8.21
2022-12-05T20:25:14.863Z,8.51
2022-12-05T20:27:58.716Z,8.51
2022-12-05T20:30:42.759Z,8.42
2022-12-05T20:33:26.523Z,8.33
2022-12-05T20:36:13.932Z,8.37
2022-12-05T20:38:59.363Z,8.57
2022-12-05T20:41:43.166Z,7.64
2022-12-05T20:44:26.880Z,7.86
2022-12-05T20:47:10.671Z,7.86
2022-12-05T20:49:54.605Z,7.91
2022-12-05T20:52:45.162Z,7.71
2022-12-05T20:55:31.217Z,7.64
2022-12-05T20:58:15.098Z,7.29
2022-12-05T21:01:00.135Z,7.70
2022-12-05T21:03:45.840Z,7.98
2022-12-05T21:06:31.869Z,8.31
2022-12-05T21:09:26.469Z,8.43
2022-12-05T21:12:10.752Z,8.19
2022-12-05T21:14:54.831Z,8.42
2022-12-05T21:17:38.954Z,8.27
2022-12-05T21:20:23.201Z,8.37
2022-12-05T21:23:07.129Z,8.28
2022-12-05T21:25:52.343Z,8.38
2022-12-05T21:28:36.659Z,8.69
2022-12-05T21:31:22.866Z,8.31
2022-12-05T21:34:08.445Z,8.64
2022-12-05T21:36:52.542Z,8.72
2022-12-05T21:39:36.765Z,8.82
2022-12-05T21:42:21.948Z,8.29
2022-12-05T21:45:06.311Z,8.09
2022-12-05T21:47:52.483Z,8.50
2022-12-05T21:50:38.829Z,8.72
2022-12-05T21:53:22.938Z,8.56
2022-12-05T21:56:10.956Z,8.42
2022-12-05T21:58:56.344Z,8.53
2022-12-05T22:01:40.234Z,8.81
2022-12-05T22:04:24.442Z,8.42
2022-12-05T22:07:08.563Z,8.13
2022-12-05T22:09:52.761Z,8.47
2022-12-05T22:12:36.790Z,8.81
2022-12-05T22:15:22.415Z,8.95
2022-12-05T22:18:06.802Z,8.84
2022-12-05T22:20:57.046Z,8.50
2022-12-05T22:23:41.149Z,8.90
2022-12-05T22:26:27.392Z,9.05
2022-12-05T22:29:11.556Z,8.97
2022-12-05T22:31:58.873Z,8.89
2022-12-05T22:34:42.873Z,8.70
2022-12-05T22:37:27.130Z,8.91
2022-12-05T22:40:12.506Z,8.85
2022-12-05T22:42:56.680Z,8.39
2022-12-05T22:45:40.659Z,8.76
2022-12-05T22:48:27.534Z,8.99
2022-12-05T22:51:11.701Z,8.99
2022-12-05T22:53:55.563Z,9.08
2022-12-05T22:56:39.616Z,9.10
2022-12-05T22:59:23.548Z,8.97
2022-12-05T23:02:07.343Z,8.80
2022-12-05T23:04:52.518Z,8.69
2022-12-05T23:07:36.283Z,8.20
2022-12-05T23:10:20.220Z,8.18
2022-12-05T23:13:03.909Z,8.27
2022-12-05T23:15:47.665Z,8.14
2022-12-05T23:18:31.570Z,8.08
2022-12-05T23:21:20.102Z,7.35
2022-12-05T23:24:06.703Z,7.53
2022-12-05T23:26:50.482Z,7.40
2022-12-05T23:29:34.296Z,7.44
2022-12-05T23:32:18.056Z,7.42
2022-12-05T23:35:01.928Z,7.40
2022-12-05T23:37:48.777Z,7.30
2022-12-05T23:40:32.531Z,7.28
2022-12-05T23:43:16.264Z,7.25
2022-12-05T23:46:00.751Z,7.17
2022-12-05T23:48:44.849Z,7.28
2022-12-05T23:51:30.113Z,7.20
2022-12-05T23:54:15.200Z,7.07
2022-12-05T23:56:58.958Z,7.17
2022-12-05T23:59:42.808Z,7.50
